createdAt,value
2022-09-11T00:01:29.849Z,31.53
2022-09-11T00:03:58.419Z,31.68
2022-09-11T00:06:30.214Z,31.42
2022-09-11T00:09:01.329Z,31.74
2022-09-11T00:11:31.681Z,31.48
2022-09-11T00:14:00.558Z,31.38
2022-09-11T00:16:32.931Z,31.39
2022-09-11T00:19:03.033Z,31.55
2022-09-11T00:21:31.443Z,31.98
2022-09-11T00:24:00.087Z,32.23
2022-09-11T00:26:28.654Z,32.11
2022-09-11T00:28:57.480Z,32.27
2022-09-11T00:31:28.435Z,32.43
2022-09-11T00:33:58.347Z,32.27
2022-09-11T00:36:29.104Z,32.49
2022-09-11T00:38:58.084Z,32.40
2022-09-11T00:41:30.964Z,32.43
2022-09-11T00:44:02.391Z,32.02
2022-09-11T00:46:35.161Z,31.82
2022-09-11T00:49:16.887Z,32.00
2022-09-11T00:51:44.931Z,31.12
2022-09-11T00:54:14.819Z,32.15
2022-09-11T00:56:44.024Z,32.38
2022-09-11T00:59:12.885Z,32.39
2022-09-11T01:01:42.086Z,32.90
2022-09-11T01:04:12.083Z,32.48
2022-09-11T01:06:41.037Z,32.72
2022-09-11T01:09:09.394Z,33.21
2022-09-11T01:11:46.170Z,32.42
2022-09-11T01:14:25.388Z,32.31
2022-09-11T01:16:55.875Z,32.62
2022-09-11T01:19:38.456Z,32.24
2022-09-11T01:22:22.619Z,32.09
2022-09-11T01:24:57.550Z,32.64
2022-09-11T01:27:42.065Z,32.34
2022-09-11T01:30:12.793Z,32.49
2022-09-11T01:32:46.766Z,32.40
2022-09-11T01:35:19.160Z,32.69
2022-09-11T01:37:55.178Z,32.13
2022-09-11T01:40:26.439Z,32.36
2022-09-11T01:43:00.962Z,32.02
2022-09-11T01:45:31.381Z,32.34
2022-09-11T01:48:00.204Z,32.42
2022-09-11T01:50:30.396Z,31.77
2022-09-11T01:53:00.704Z,32.25
2022-09-11T01:55:32.144Z,31.85
2022-09-11T01:58:06.793Z,31.82
2022-09-11T02:00:36.905Z,32.39
2022-09-11T02:03:09.343Z,32.26
2022-09-11T02:05:41.861Z,31.72
2022-09-11T02:08:14.400Z,31.96
2022-09-11T02:10:47.170Z,32.10
2022-09-11T02:13:20.381Z,32.32
2022-09-11T02:15:52.264Z,31.97
2022-09-11T02:18:27.080Z,32.18
2022-09-11T02:20:56.029Z,32.57
2022-09-11T02:23:24.464Z,32.91
2022-09-11T02:25:52.635Z,32.49
2022-09-11T02:28:22.197Z,32.24
2022-09-11T02:30:50.722Z,32.89
2022-09-11T02:33:32.964Z,31.81
2022-09-11T02:36:23.144Z,31.59
2022-09-11T02:38:59.483Z,32.05
2022-09-11T02:41:32.454Z,31.97
2022-09-11T02:44:09.230Z,31.68
2022-09-11T02:47:05.754Z,31.34
2022-09-11T02:49:44.384Z,31.58
2022-09-11T02:52:20.945Z,31.84
2022-09-11T02:54:54.909Z,32.10
2022-09-11T02:57:30.248Z,31.91
2022-09-11T03:00:02.046Z,32.27
2022-09-11T03:02:32.172Z,32.21
2022-09-11T03:05:00.460Z,32.58
2022-09-11T03:07:28.771Z,32.28
2022-09-11T03:09:57.154Z,32.26
2022-09-11T03:12:25.404Z,32.64
2022-09-11T03:14:53.732Z,32.49
2022-09-11T03:17:23.626Z,32.43
2022-09-11T03:19:51.761Z,32.40
2022-09-11T03:22:20.006Z,32.53
2022-09-11T03:24:48.301Z,32.66
2022-09-11T03:27:17.301Z,32.25
2022-09-11T03:29:46.693Z,32.65
2022-09-11T03:32:16.313Z,32.51
2022-09-11T03:34:47.202Z,32.05
2022-09-11T03:37:16.101Z,32.48
2022-09-11T03:39:44.330Z,32.74
2022-09-11T03:42:12.769Z,32.41
2022-09-11T03:44:41.632Z,32.80
2022-09-11T03:47:09.705Z,32.44
2022-09-11T03:49:38.131Z,32.52
2022-09-11T03:52:08.000Z,32.44
2022-09-11T03:54:36.282Z,33.00
2022-09-11T03:57:04.611Z,32.74
2022-09-11T03:59:33.056Z,33.15
2022-09-11T04:02:01.500Z,33.20
2022-09-11T04:04:29.789Z,33.37
2022-09-11T04:06:58.472Z,33.17
2022-09-11T04:09:28.735Z,33.00
2022-09-11T04:11:56.893Z,33.18
2022-09-11T04:14:25.492Z,33.53
2022-09-11T04:16:54.876Z,33.01
2022-09-11T04:19:23.894Z,33.31
2022-09-11T04:21:52.438Z,33.49
2022-09-11T04:24:20.669Z,33.46
2022-09-11T04:26:50.255Z,32.50
2022-09-11T04:29:18.910Z,32.75
2022-09-11T04:31:47.073Z,32.71
2022-09-11T04:34:15.365Z,33.06
2022-09-11T04:36:43.867Z,32.60
2022-09-11T04:39:12.590Z,32.61
2022-09-11T04:41:40.736Z,32.46
2022-09-11T04:44:10.669Z,31.83
2022-09-11T04:46:39.129Z,32.36
2022-09-11T04:49:08.324Z,31.83
2022-09-11T04:51:38.377Z,32.06
2022-09-11T04:54:07.930Z,31.76
2022-09-11T04:56:38.751Z,31.78
2022-09-11T04:59:13.312Z,31.82
2022-09-11T05:01:44.273Z,31.99
2022-09-11T05:04:13.115Z,31.47
2022-09-11T05:06:42.571Z,32.59
2022-09-11T05:09:12.106Z,32.42
2022-09-11T05:11:40.847Z,32.96
2022-09-11T05:14:09.143Z,32.76
2022-09-11T05:16:37.993Z,33.07
2022-09-11T05:19:08.000Z,32.91
2022-09-11T05:21:36.757Z,32.96
2022-09-11T05:24:05.782Z,33.20
2022-09-11T05:26:36.598Z,33.06
2022-09-11T05:29:07.447Z,33.10
2022-09-11T05:31:37.358Z,32.83
2022-09-11T05:34:07.496Z,32.85
2022-09-11T05:36:36.044Z,32.63
2022-09-11T05:39:05.169Z,32.95
2022-09-11T05:41:33.591Z,32.84
2022-09-11T05:44:01.875Z,32.92
2022-09-11T05:46:30.263Z,32.52
2022-09-11T05:48:59.423Z,32.58
2022-09-11T05:51:28.955Z,31.84
2022-09-11T05:53:58.249Z,32.26
2022-09-11T05:56:29.977Z,32.23
2022-09-11T05:58:58.913Z,32.18
2022-09-11T06:01:28.973Z,31.69
2022-09-11T06:03:58.195Z,32.04
2022-09-11T06:06:28.134Z,32.08
2022-09-11T06:08:56.243Z,31.74
2022-09-11T06:11:24.566Z,31.57
2022-09-11T06:13:53.292Z,31.46
2022-09-11T06:16:23.129Z,30.97
2022-09-11T06:18:52.244Z,31.38
2022-09-11T06:21:22.172Z,31.04
2022-09-11T06:23:53.644Z,30.60
2022-09-11T06:26:23.513Z,30.29
2022-09-11T06:28:51.990Z,30.71
2022-09-11T06:31:22.332Z,30.40
2022-09-11T06:33:51.564Z,30.40
2022-09-11T06:36:21.286Z,30.16
2022-09-11T06:38:55.779Z,29.71
2022-09-11T06:41:25.277Z,30.15
2022-09-11T06:43:53.963Z,30.50
2022-09-11T06:46:24.214Z,30.38
2022-09-11T06:48:53.583Z,31.71
2022-09-11T06:51:23.047Z,32.31
2022-09-11T06:53:56.332Z,32.80
2022-09-11T06:56:25.434Z,33.97
2022-09-11T06:58:53.578Z,34.28
2022-09-11T07:01:22.896Z,34.48
2022-09-11T07:03:53.101Z,34.98
2022-09-11T07:06:22.837Z,35.20
2022-09-11T07:08:52.504Z,35.28
2022-09-11T07:11:22.627Z,35.30
2022-09-11T07:13:50.769Z,35.39
2022-09-11T07:16:19.061Z,35.35
2022-09-11T07:18:48.585Z,34.90
2022-09-11T07:21:18.564Z,35.01
2022-09-11T07:23:48.881Z,35.02
2022-09-11T07:26:18.554Z,35.43
2022-09-11T07:28:49.013Z,35.04
2022-09-11T07:31:20.994Z,35.12
2022-09-11T07:33:51.581Z,35.18
2022-09-11T07:36:21.863Z,35.23
2022-09-11T07:39:04.945Z,34.48
2022-09-11T07:41:33.470Z,35.21
2022-09-11T07:44:04.188Z,34.40
2022-09-11T07:46:33.042Z,34.75
2022-09-11T07:49:02.124Z,34.32
2022-09-11T07:51:30.735Z,34.47
2022-09-11T07:54:00.224Z,34.39
2022-09-11T07:56:29.194Z,33.69
2022-09-11T07:59:21.279Z,32.35
2022-09-11T08:01:50.240Z,33.32
2022-09-11T08:04:18.756Z,33.02
2022-09-11T08:06:47.698Z,32.74
2022-09-11T08:09:16.791Z,32.38
2022-09-11T08:11:48.720Z,31.80
2022-09-11T08:14:17.861Z,32.06
2022-09-11T08:16:48.486Z,31.46
2022-09-11T08:19:19.096Z,30.96
2022-09-11T08:21:48.308Z,31.24
2022-09-11T08:24:18.113Z,31.16
2022-09-11T08:26:49.009Z,31.05
2022-09-11T08:29:18.434Z,30.56
2022-09-11T08:31:48.008Z,29.70
2022-09-11T08:34:16.438Z,29.66
2022-09-11T08:36:45.650Z,28.99
2022-09-11T08:39:14.073Z,28.61
2022-09-11T08:41:48.379Z,27.95
2022-09-11T08:44:21.321Z,27.26
2022-09-11T08:46:55.166Z,26.97
2022-09-11T08:49:26.422Z,26.70
2022-09-11T08:51:56.669Z,26.86
2022-09-11T08:54:27.741Z,26.30
2022-09-11T08:57:01.531Z,26.51
2022-09-11T08:59:39.085Z,26.25
2022-09-11T09:02:18.622Z,26.15
2022-09-11T09:05:05.065Z,26.21
2022-09-11T09:07:41.853Z,24.31
2022-09-11T09:10:17.533Z,23.27
2022-09-11T09:12:52.151Z,23.00
2022-09-11T09:15:29.502Z,23.04
2022-09-11T09:18:02.682Z,23.84
2022-09-11T09:20:34.463Z,24.56
2022-09-11T09:23:05.495Z,25.56
2022-09-11T09:25:37.457Z,25.53
2022-09-11T09:28:13.948Z,25.36
2022-09-11T09:30:46.588Z,25.68
2022-09-11T09:33:27.703Z,25.53
2022-09-11T09:35:57.907Z,26.69
2022-09-11T09:38:29.449Z,26.41
2022-09-11T09:41:14.797Z,26.50
2022-09-11T09:43:51.583Z,26.89
2022-09-11T09:46:27.621Z,26.99
2022-09-11T09:48:57.204Z,27.11
2022-09-11T09:51:25.671Z,26.59
2022-09-11T09:53:56.731Z,25.54
2022-09-11T09:56:26.270Z,25.47
2022-09-11T09:59:01.053Z,24.68
2022-09-11T10:01:50.346Z,23.79
2022-09-11T10:04:23.191Z,23.12
2022-09-11T10:06:53.165Z,22.58
2022-09-11T10:09:27.474Z,22.04
2022-09-11T10:12:02.011Z,22.01
2022-09-11T10:15:02.031Z,22.12
2022-09-11T10:17:24.362Z,22.92
2022-09-11T10:19:55.388Z,23.09
2022-09-11T10:22:29.645Z,22.83
2022-09-11T10:25:07.197Z,23.05
2022-09-11T10:27:42.111Z,23.46
2022-09-11T10:30:27.127Z,23.02
2022-09-11T10:33:05.977Z,23.30
2022-09-11T10:35:37.865Z,24.04
2022-09-11T10:38:18.139Z,23.78
2022-09-11T10:40:58.705Z,24.02
2022-09-11T10:43:38.297Z,23.74
2022-09-11T10:46:22.858Z,23.63
2022-09-11T10:48:56.390Z,23.39
2022-09-11T10:51:27.733Z,23.20
2022-09-11T10:54:03.577Z,22.61
2022-09-11T10:56:34.379Z,22.09
2022-09-11T10:59:05.620Z,20.59
2022-09-11T11:01:33.906Z,18.20
2022-09-11T11:04:02.838Z,18.53
2022-09-11T11:06:46.059Z,17.49
2022-09-11T11:09:31.159Z,16.76
2022-09-11T11:12:11.073Z,16.01
2022-09-11T11:14:56.946Z,16.78
2022-09-11T11:17:31.899Z,17.85
2022-09-11T11:20:11.011Z,17.21
2022-09-11T11:23:01.037Z,14.18
2022-09-11T11:25:38.355Z,12.66
2022-09-11T11:28:25.163Z,12.89
2022-09-11T11:31:01.147Z,13.99
2022-09-11T11:33:39.763Z,15.37
2022-09-11T11:36:11.627Z,16.47
2022-09-11T11:38:44.547Z,16.52
2022-09-11T11:41:16.739Z,15.82
2022-09-11T11:43:45.584Z,15.95
2022-09-11T11:46:18.297Z,15.78
2022-09-11T11:48:52.115Z,15.62
2022-09-11T11:51:22.152Z,16.35
2022-09-11T11:53:59.217Z,16.51
2022-09-11T11:56:34.099Z,16.62
2022-09-11T11:59:05.448Z,16.88
2022-09-11T12:01:37.693Z,17.87
2022-09-11T12:04:14.545Z,18.08
2022-09-11T12:06:43.396Z,18.64
2022-09-11T12:09:17.301Z,18.29
2022-09-11T12:11:48.334Z,18.81
2022-09-11T12:14:29.080Z,18.71
2022-09-11T12:16:58.361Z,19.37
2022-09-11T12:19:27.067Z,19.43
2022-09-11T12:22:16.357Z,19.14
2022-09-11T12:24:59.030Z,19.46
2022-09-11T12:27:53.503Z,19.88
2022-09-11T12:30:27.017Z,20.57
2022-09-11T12:32:56.052Z,20.59
2022-09-11T12:35:30.161Z,19.88
2022-09-11T12:38:04.113Z,20.39
2022-09-11T12:40:39.110Z,19.69
2022-09-11T12:43:42.078Z,19.59
2022-09-11T12:46:13.495Z,20.33
2022-09-11T12:48:43.344Z,20.42
2022-09-11T12:51:21.905Z,20.27
2022-09-11T12:53:53.256Z,19.57
2022-09-11T12:56:34.947Z,19.45
2022-09-11T12:59:05.037Z,20.33
2022-09-11T13:01:36.006Z,20.07
2022-09-11T13:04:13.084Z,19.40
2022-09-11T13:06:44.590Z,20.02
2022-09-11T13:09:18.415Z,19.12
2022-09-11T13:11:49.918Z,19.63
2022-09-11T13:14:46.066Z,19.16
2022-09-11T13:17:25.959Z,19.50
2022-09-11T13:19:55.668Z,19.51
2022-09-11T13:22:31.223Z,18.62
2022-09-11T13:25:07.266Z,19.18
2022-09-11T13:27:40.150Z,19.45
2022-09-11T13:30:09.502Z,19.15
2022-09-11T13:32:38.138Z,19.71
2022-09-11T13:35:11.156Z,19.58
2022-09-11T13:37:41.753Z,19.66
2022-09-11T13:40:19.521Z,19.74
2022-09-11T13:42:50.149Z,19.74
2022-09-11T13:45:20.540Z,19.82
2022-09-11T13:47:49.112Z,19.89
2022-09-11T13:50:20.956Z,20.08
2022-09-11T13:52:49.384Z,20.72
2022-09-11T13:55:20.109Z,20.92
2022-09-11T13:57:54.702Z,20.31
2022-09-11T14:00:40.774Z,20.52
2022-09-11T14:03:18.217Z,20.24
2022-09-11T14:05:51.581Z,20.47
2022-09-11T14:08:27.337Z,20.56
2022-09-11T14:10:59.437Z,19.76
2022-09-11T14:13:33.293Z,19.38
2022-09-11T14:16:04.620Z,20.04
2022-09-11T14:18:33.449Z,19.14
2022-09-11T14:21:04.222Z,20.04
2022-09-11T14:23:32.789Z,20.75
2022-09-11T14:26:09.116Z,20.55
2022-09-11T14:29:10.464Z,20.29
2022-09-11T14:31:40.916Z,20.73
2022-09-11T14:34:13.796Z,20.79
2022-09-11T14:36:45.180Z,20.86
2022-09-11T14:39:23.891Z,20.88
2022-09-11T14:41:52.179Z,21.90
2022-09-11T14:44:22.276Z,23.32
2022-09-11T14:46:50.563Z,25.02
2022-09-11T14:49:18.665Z,26.60
2022-09-11T14:51:53.400Z,26.64
2022-09-11T14:54:22.852Z,27.27
2022-09-11T14:56:51.184Z,27.81
2022-09-11T14:59:20.977Z,27.90
2022-09-11T15:01:52.464Z,28.11
2022-09-11T15:04:23.176Z,28.17
2022-09-11T15:06:54.190Z,28.07
2022-09-11T15:09:23.166Z,28.54
2022-09-11T15:11:52.426Z,28.45
2022-09-11T15:14:44.695Z,28.33
2022-09-11T15:17:12.770Z,28.39
2022-09-11T15:19:41.076Z,28.52
2022-09-11T15:22:09.842Z,28.52
2022-09-11T15:24:38.203Z,28.66
2022-09-11T15:27:06.518Z,28.72
2022-09-11T15:29:36.348Z,28.28
2022-09-11T15:32:06.354Z,28.04
2022-09-11T15:34:34.794Z,27.90
2022-09-11T15:37:03.212Z,28.00
2022-09-11T15:39:32.227Z,28.28
2022-09-11T15:42:01.984Z,27.93
2022-09-11T15:44:30.702Z,27.63
2022-09-11T15:47:00.618Z,27.61
2022-09-11T15:49:29.572Z,27.79
2022-09-11T15:51:59.105Z,27.71
2022-09-11T15:54:28.090Z,27.87
2022-09-11T15:56:57.394Z,27.83
2022-09-11T15:59:25.758Z,28.05
2022-09-11T16:01:54.262Z,27.80
2022-09-11T16:04:28.321Z,27.66
2022-09-11T16:06:56.859Z,27.95
2022-09-11T16:09:27.061Z,28.14
2022-09-11T16:11:56.188Z,27.97
2022-09-11T16:14:25.707Z,27.84
2022-09-11T16:16:54.691Z,28.10
2022-09-11T16:19:28.308Z,27.81
2022-09-11T16:21:57.789Z,28.14
2022-09-11T16:24:27.842Z,28.12
2022-09-11T16:26:56.680Z,28.18
2022-09-11T16:29:44.079Z,28.36
2022-09-11T16:32:28.634Z,28.69
2022-09-11T16:34:59.820Z,28.53
2022-09-11T16:37:28.354Z,28.58
2022-09-11T16:39:56.982Z,28.80
2022-09-11T16:42:26.670Z,29.06
2022-09-11T16:44:55.369Z,29.17
2022-09-11T16:47:24.877Z,28.85
2022-09-11T16:50:09.154Z,28.78
2022-09-11T16:52:39.144Z,28.52
2022-09-11T16:55:10.781Z,28.76
2022-09-11T16:57:39.824Z,28.86
2022-09-11T17:00:09.893Z,29.28
2022-09-11T17:02:38.833Z,29.05
2022-09-11T17:05:08.630Z,29.26
2022-09-11T17:07:41.674Z,29.17
2022-09-11T17:10:10.999Z,29.33
2022-09-11T17:12:39.195Z,29.71
2022-09-11T17:15:08.780Z,29.33
2022-09-11T17:17:38.065Z,29.71
2022-09-11T17:20:09.550Z,29.13
2022-09-11T17:22:39.490Z,29.33
2022-09-11T17:25:08.268Z,29.45
2022-09-11T17:27:37.224Z,29.50
2022-09-11T17:30:06.009Z,29.01
2022-09-11T17:32:34.428Z,29.32
2022-09-11T17:35:02.794Z,29.13
2022-09-11T17:37:33.088Z,29.45
2022-09-11T17:40:03.273Z,29.18
2022-09-11T17:42:32.422Z,29.35
2022-09-11T17:45:01.570Z,29.45
2022-09-11T17:47:31.810Z,28.95
2022-09-11T17:50:01.570Z,29.14
2022-09-11T17:52:30.030Z,29.49
2022-09-11T17:54:58.402Z,29.28
2022-09-11T17:57:28.433Z,28.87
2022-09-11T17:59:56.716Z,29.14
2022-09-11T18:02:25.206Z,29.61
2022-09-11T18:04:54.309Z,29.77
2022-09-11T18:07:22.419Z,29.80
2022-09-11T18:09:55.568Z,29.69
2022-09-11T18:12:25.851Z,29.95
2022-09-11T18:14:57.135Z,30.03
2022-09-11T18:17:25.452Z,29.85
2022-09-11T18:19:53.697Z,29.90
2022-09-11T18:22:22.547Z,30.46
2022-09-11T18:24:51.616Z,30.35
2022-09-11T18:27:20.018Z,30.58
2022-09-11T18:29:50.100Z,30.67
2022-09-11T18:32:20.192Z,30.18
2022-09-11T18:34:49.785Z,30.31
2022-09-11T18:37:18.453Z,30.04
2022-09-11T18:39:48.427Z,30.43
2022-09-11T18:42:18.132Z,30.33
2022-09-11T18:44:46.364Z,30.12
2022-09-11T18:47:14.706Z,30.09
2022-09-11T18:49:46.160Z,30.26
2022-09-11T18:52:14.727Z,30.40
2022-09-11T18:54:43.093Z,30.21
2022-09-11T18:57:11.328Z,30.12
2022-09-11T18:59:39.593Z,30.33
2022-09-11T19:02:08.390Z,30.17
2022-09-11T19:04:36.703Z,30.43
2022-09-11T19:07:06.461Z,30.13
2022-09-11T19:09:35.469Z,30.01
2022-09-11T19:12:05.471Z,29.85
2022-09-11T19:14:36.082Z,30.19
2022-09-11T19:17:04.450Z,29.67
2022-09-11T19:19:32.832Z,29.84
2022-09-11T19:22:01.122Z,29.95
2022-09-11T19:24:31.330Z,29.22
2022-09-11T19:27:00.329Z,29.52
2022-09-11T19:29:28.602Z,29.66
2022-09-11T19:31:57.028Z,29.35
2022-09-11T19:34:25.094Z,29.26
2022-09-11T19:36:53.993Z,29.34
2022-09-11T19:39:22.597Z,29.20
2022-09-11T19:41:52.189Z,29.16
2022-09-11T19:44:21.153Z,29.40
2022-09-11T19:46:53.550Z,29.49
2022-09-11T19:49:22.030Z,29.21
2022-09-11T19:51:53.015Z,29.19
2022-09-11T19:54:22.477Z,29.49
2022-09-11T19:56:52.748Z,28.91
2022-09-11T19:59:21.246Z,29.78
2022-09-11T20:01:49.443Z,29.58
2022-09-11T20:04:19.208Z,30.05
2022-09-11T20:09:31.850Z,30.78
2022-09-11T20:12:02.532Z,30.21
2022-09-11T20:14:31.517Z,30.49
2022-09-11T20:17:01.202Z,30.81
2022-09-11T20:19:30.085Z,31.22
2022-09-11T20:22:00.485Z,31.44
2022-09-11T20:24:29.085Z,31.21
2022-09-11T20:26:57.868Z,31.41
2022-09-11T20:29:28.065Z,31.16
2022-09-11T20:31:56.463Z,31.60
2022-09-11T20:34:28.093Z,31.58
2022-09-11T20:36:57.089Z,31.71
2022-09-11T20:39:25.543Z,31.82
2022-09-11T20:41:53.652Z,32.12
2022-09-11T20:44:21.762Z,31.94
2022-09-11T20:46:51.535Z,31.96
2022-09-11T20:49:19.823Z,32.31
2022-09-11T20:51:48.216Z,32.43
2022-09-11T20:54:16.954Z,32.51
2022-09-11T20:56:46.449Z,32.16
2022-09-11T20:59:14.818Z,32.39
2022-09-11T21:01:43.413Z,32.77
2022-09-11T21:04:13.343Z,32.30
2022-09-11T21:06:41.778Z,32.37
2022-09-11T21:09:11.976Z,32.65
2022-09-11T21:11:41.221Z,32.43
2022-09-11T21:14:09.516Z,32.59
2022-09-11T21:16:38.215Z,32.83
2022-09-11T21:19:07.093Z,32.27
2022-09-11T21:21:38.002Z,31.97
2022-09-11T21:24:10.222Z,31.77
2022-09-11T21:26:38.564Z,32.21
2022-09-11T21:29:08.493Z,31.55
2022-09-11T21:31:41.286Z,32.16
2022-09-11T21:34:10.170Z,32.05
2022-09-11T21:36:39.912Z,31.47
2022-09-11T21:39:07.992Z,31.88
2022-09-11T21:41:36.507Z,32.31
2022-09-11T21:44:04.948Z,32.38
2022-09-11T21:46:33.104Z,32.83
2022-09-11T21:49:01.827Z,32.76
2022-09-11T21:51:30.115Z,32.62
2022-09-11T21:54:01.733Z,32.42
2022-09-11T21:56:33.165Z,32.46
2022-09-11T21:59:01.899Z,32.90
2022-09-11T22:01:31.814Z,32.93
2022-09-11T22:04:01.224Z,32.71
2022-09-11T22:06:30.071Z,33.16
2022-09-11T22:09:00.557Z,32.90
2022-09-11T22:11:29.096Z,33.30
2022-09-11T22:13:57.184Z,33.08
2022-09-11T22:16:25.427Z,33.06
2022-09-11T22:18:55.707Z,33.12
2022-09-11T22:21:24.119Z,33.67
2022-09-11T22:23:52.813Z,33.65
2022-09-11T22:26:23.929Z,33.45
2022-09-11T22:28:52.886Z,33.56
2022-09-11T22:31:23.814Z,33.56
2022-09-11T22:33:52.276Z,33.82
2022-09-11T22:36:24.402Z,33.70
2022-09-11T22:38:53.370Z,33.64
2022-09-11T22:41:23.256Z,33.41
2022-09-11T22:43:51.515Z,34.29
2022-09-11T22:46:21.285Z,34.00
2022-09-11T22:48:49.774Z,33.94
2022-09-11T22:51:17.878Z,34.05
2022-09-11T22:53:46.966Z,34.19
2022-09-11T22:56:15.321Z,34.18
2022-09-11T22:58:45.049Z,33.57
2022-09-11T23:01:21.068Z,33.59
2022-09-11T23:03:50.954Z,33.96
2022-09-11T23:06:38.236Z,33.98
2022-09-11T23:09:07.738Z,33.75
2022-09-11T23:11:36.180Z,33.60
2022-09-11T23:14:09.335Z,33.86
2022-09-11T23:16:41.947Z,34.12
2022-09-11T23:19:13.170Z,33.68
2022-09-11T23:21:41.613Z,34.00
2022-09-11T23:24:13.366Z,33.94
2022-09-11T23:26:41.997Z,34.43
2022-09-11T23:29:12.390Z,34.21
2022-09-11T23:31:40.526Z,34.30
2022-09-11T23:34:10.059Z,34.22
2022-09-11T23:36:38.451Z,34.42
2022-09-11T23:39:06.619Z,34.61
2022-09-11T23:41:34.831Z,34.51
2022-09-11T23:44:03.642Z,34.62
2022-09-11T23:46:33.752Z,34.29
2022-09-11T23:49:01.880Z,34.60
2022-09-11T23:51:30.352Z,34.77
2022-09-11T23:53:58.431Z,34.88
2022-09-11T23:56:26.616Z,34.83
2022-09-11T23:58:54.940Z,34.73
